Time;durP1;ratioP1;P1;durP2;ratioP2;P2;SDS_P1;SDS_P2;PMS_P1;PMS_P2;Temp;Humidity;BMP_temperature;BMP_pressure;BME280_temperature;BME280_humidity;BME280_pressure;Samples;Min_cycle;Max_cycle;Signal;HPM_P1;HPM_P2
2023/07/05 00:00:41;;;;;;;5.22;1.98;;;15.60;99.90;;;;;;5040515;28;20834;-64
2023/07/05 00:03:07;;;;;;;3.75;1.90;;;15.60;99.90;;;;;;5046273;28;20196;-64
2023/07/05 00:05:36;;;;;;;6.20;2.20;;;15.60;99.90;;;;;;5062782;28;20196;-64
2023/07/05 00:08:02;;;;;;;9.35;3.50;;;15.50;99.90;;;;;;5051493;28;20896;-63
2023/07/05 00:10:31;;;;;;;6.95;2.60;;;15.60;99.90;;;;;;5029295;28;20234;-64
2023/07/05 00:12:59;;;;;;;3.30;2.30;;;15.60;99.90;;;;;;5046471;28;20339;-64
2023/07/05 00:15:26;;;;;;;5.30;2.63;;;15.60;99.90;;;;;;5044321;28;20897;-64
2023/07/05 00:17:53;;;;;;;6.05;2.78;;;15.60;99.90;;;;;;5055261;28;20250;-64
2023/07/05 00:20:20;;;;;;;7.70;2.65;;;15.60;99.90;;;;;;5059915;28;20709;-64
2023/07/05 00:22:47;;;;;;;5.55;2.92;;;15.60;99.90;;;;;;5053853;28;20199;-64
2023/07/05 00:25:14;;;;;;;11.52;3.45;;;15.60;99.90;;;;;;5029871;28;20605;-64
2023/07/05 00:27:42;;;;;;;5.75;3.03;;;15.70;99.90;;;;;;5058518;28;20199;-64
2023/07/05 00:30:10;;;;;;;7.18;3.15;;;15.70;99.90;;;;;;5046602;28;22884;-64
2023/07/05 00:32:36;;;;;;;5.57;3.30;;;15.70;99.90;;;;;;5062495;28;20193;-64
2023/07/05 00:35:04;;;;;;;9.50;3.60;;;15.70;99.90;;;;;;5057396;28;20314;-64
2023/07/05 00:37:30;;;;;;;7.93;3.45;;;15.70;99.90;;;;;;5063242;28;20731;-64
2023/07/05 00:39:57;;;;;;;5.70;3.38;;;15.70;99.90;;;;;;5048444;28;20409;-64
2023/07/05 00:42:25;;;;;;;6.70;3.20;;;15.70;99.90;;;;;;5030943;28;20819;-64
2023/07/05 00:45:33;;;;;;;9.95;3.30;;;15.80;99.90;;;;;;5048884;28;20692;-64
2023/07/05 00:48:02;;;;;;;5.60;3.08;;;15.80;99.90;;;;;;5051722;28;20550;-64
2023/07/05 00:50:37;;;;;;;7.65;3.30;;;15.80;99.90;;;;;;5054486;28;20228;-64
2023/07/05 00:53:05;;;;;;;6.60;3.60;;;15.80;99.90;;;;;;5059762;28;20200;-64
2023/07/05 00:55:33;;;;;;;10.70;3.60;;;15.70;99.90;;;;;;5042360;28;20196;-64
2023/07/05 00:58:00;;;;;;;8.68;3.45;;;15.70;99.90;;;;;;5036493;28;20229;-64
2023/07/05 01:00:27;;;;;;;7.25;3.83;;;15.60;99.90;;;;;;5044731;28;20212;-64
2023/07/05 01:02:57;;;;;;;7.82;4.10;;;15.60;99.90;;;;;;5064746;28;20200;-64
2023/07/05 01:05:26;;;;;;;7.07;3.53;;;15.60;99.90;;;;;;5060210;28;20751;-64
2023/07/05 01:07:53;;;;;;;7.80;3.10;;;15.60;99.90;;;;;;5058445;28;20392;-64
2023/07/05 01:10:21;;;;;;;8.23;3.05;;;15.60;99.90;;;;;;5036529;28;20420;-64
2023/07/05 01:12:56;;;;;;;5.45;3.28;;;15.60;99.90;;;;;;5033291;28;20720;-64
2023/07/05 01:15:31;;;;;;;12.40;3.63;;;15.70;99.90;;;;;;5034195;28;20643;-64
2023/07/05 01:18:16;;;;;;;8.73;3.55;;;15.50;99.90;;;;;;5061598;28;20596;-64
2023/07/05 01:20:51;;;;;;;5.72;3.55;;;15.50;99.90;;;;;;5048019;28;20200;-64
2023/07/05 01:23:58;;;;;;;7.15;3.30;;;15.60;99.90;;;;;;5053273;28;20332;-64
2023/07/05 01:26:55;;;;;;;8.38;3.80;;;15.50;99.90;;;;;;5030697;28;20227;-65
2023/07/05 01:30:06;;;;;;;7.97;3.47;;;15.50;99.90;;;;;;5030296;28;20215;-64
2023/07/05 01:32:38;;;;;;;12.23;5.38;;;15.50;99.90;;;;;;5047364;28;20287;-64
2023/07/05 01:35:13;;;;;;;38.00;14.02;;;15.00;99.90;;;;;;5051889;28;20193;-64
2023/07/05 01:37:44;;;;;;;48.67;15.65;;;15.50;99.90;;;;;;5055732;28;20243;-64
2023/07/05 01:40:36;;;;;;;46.55;14.80;;;15.50;99.90;;;;;;5049815;28;20204;-64
2023/07/05 01:43:07;;;;;;;17.13;6.32;;;15.50;99.90;;;;;;5037650;28;20197;-64
2023/07/05 01:45:42;;;;;;;16.67;6.13;;;15.50;99.90;;;;;;5041670;28;20216;-64
2023/07/05 01:48:19;;;;;;;10.15;4.63;;;15.50;99.90;;;;;;5048789;28;20207;-64
2023/07/05 01:50:52;;;;;;;8.68;3.78;;;15.50;99.90;;;;;;5046113;28;21135;-64
2023/07/05 01:53:25;;;;;;;7.55;3.95;;;15.50;99.90;;;;;;5057797;28;20673;-64
2023/07/05 01:56:00;;;;;;;7.10;3.85;;;15.50;99.90;;;;;;5046771;28;20879;-64
2023/07/05 01:58:31;;;;;;;5.10;3.63;;;15.50;99.90;;;;;;5033469;28;20230;-64
2023/07/05 02:01:00;;;;;;;6.03;3.05;;;15.50;99.90;;;;;;5054431;28;20308;-64
2023/07/05 02:03:29;;;;;;;5.43;4.00;;;15.50;99.90;;;;;;5045542;28;20197;-64
2023/07/05 02:05:56;;;;;;;6.28;3.50;;;15.50;99.90;;;;;;5058613;28;20853;-64
2023/07/05 02:08:26;;;;;;;6.00;3.63;;;15.70;99.90;;;;;;5046258;28;20884;-64
2023/07/05 02:10:53;;;;;;;5.50;3.65;;;15.60;99.90;;;;;;5044480;28;20926;-64
2023/07/05 02:13:19;;;;;;;6.95;3.45;;;15.80;99.90;;;;;;5041144;28;20204;-64
2023/07/05 02:15:48;;;;;;;8.27;3.55;;;15.60;99.90;;;;;;5030263;28;20286;-64
2023/07/05 02:18:15;;;;;;;6.28;3.65;;;15.40;99.90;;;;;;5043061;28;20224;-64
2023/07/05 02:20:44;;;;;;;9.85;3.95;;;15.50;99.90;;;;;;5054788;28;20712;-64
2023/07/05 02:23:10;;;;;;;11.15;4.30;;;15.50;99.90;;;;;;5044690;28;20435;-64
2023/07/05 02:25:38;;;;;;;6.32;3.47;;;15.50;99.90;;;;;;5042483;28;20195;-64
2023/07/05 02:28:07;;;;;;;7.28;4.22;;;15.50;99.90;;;;;;5055858;28;20228;-64
2023/07/05 02:30:35;;;;;;;8.68;3.75;;;15.50;99.90;;;;;;5018091;28;20215;-64
2023/07/05 02:33:02;;;;;;;7.28;3.88;;;15.50;99.90;;;;;;5047661;28;20205;-64
2023/07/05 02:35:29;;;;;;;4.38;3.47;;;15.60;99.90;;;;;;5054122;28;20200;-64
2023/07/05 02:37:57;;;;;;;6.68;3.92;;;15.60;99.90;;;;;;5056048;28;20439;-64
2023/07/05 02:40:24;;;;;;;6.15;3.88;;;15.60;99.90;;;;;;5044831;28;20204;-64
2023/07/05 02:42:51;;;;;;;10.27;3.92;;;15.60;99.90;;;;;;5049438;28;20418;-64
2023/07/05 02:45:17;;;;;;;8.88;3.83;;;15.60;99.90;;;;;;5025043;28;20228;-64
2023/07/05 02:47:44;;;;;;;7.35;4.18;;;15.60;99.90;;;;;;5051479;28;20207;-64
2023/07/05 02:50:14;;;;;;;5.65;3.78;;;15.60;99.90;;;;;;5050794;28;20216;-65
2023/07/05 02:52:41;;;;;;;7.18;3.75;;;15.50;99.90;;;;;;5053324;28;20599;-65
2023/07/05 02:55:10;;;;;;;4.55;3.30;;;15.50;99.90;;;;;;5048976;28;20248;-64
2023/07/05 02:57:36;;;;;;;7.50;4.45;;;15.40;99.90;;;;;;5043967;28;20704;-64
2023/07/05 03:00:06;;;;;;;6.95;4.65;;;15.40;99.90;;;;;;5039415;28;20255;-65
2023/07/05 03:02:33;;;;;;;17.77;7.40;;;15.30;99.90;;;;;;5029890;28;20223;-65
2023/07/05 03:05:07;;;;;;;28.58;10.55;;;15.30;99.90;;;;;;5045077;28;20201;-65
2023/07/05 03:07:33;;;;;;;19.55;6.90;;;15.40;99.90;;;;;;5044605;28;20203;-65
2023/07/05 03:10:00;;;;;;;12.90;5.75;;;15.30;99.90;;;;;;5054434;28;20206;-65
2023/07/05 03:12:28;;;;;;;15.00;5.90;;;15.40;99.90;;;;;;5040077;28;20211;-65
2023/07/05 03:14:55;;;;;;;8.82;4.45;;;15.40;99.90;;;;;;5045617;28;21020;-65
2023/07/05 03:17:22;;;;;;;6.03;4.32;;;15.20;99.90;;;;;;5036195;28;20204;-65
2023/07/05 03:19:49;;;;;;;7.85;4.70;;;15.20;99.90;;;;;;5048613;28;20443;-65
2023/07/05 03:22:15;;;;;;;6.80;4.22;;;15.20;99.90;;;;;;5057190;28;20205;-65
2023/07/05 03:24:42;;;;;;;12.27;4.93;;;15.10;99.90;;;;;;5052060;28;20736;-65
2023/07/05 03:27:09;;;;;;;11.35;4.90;;;15.10;99.90;;;;;;5043206;28;20735;-65
2023/07/05 03:29:37;;;;;;;6.82;4.50;;;15.20;99.90;;;;;;5042814;28;20701;-65
2023/07/05 03:32:04;;;;;;;8.68;4.32;;;15.10;99.90;;;;;;5039164;28;20481;-65
2023/07/05 03:34:31;;;;;;;11.68;4.70;;;15.10;99.90;;;;;;5031335;28;20225;-65
2023/07/05 03:36:58;;;;;;;10.80;5.07;;;15.20;99.90;;;;;;5046438;28;20197;-65
2023/07/05 03:39:24;;;;;;;11.38;4.40;;;15.20;99.90;;;;;;5050883;28;20506;-65
2023/07/05 03:41:51;;;;;;;6.45;4.47;;;15.10;99.90;;;;;;5043906;28;20671;-65
2023/07/05 03:44:21;;;;;;;6.97;4.60;;;15.00;99.90;;;;;;5043325;28;20212;-65
2023/07/05 03:46:50;;;;;;;6.63;4.68;;;15.20;99.90;;;;;;5040936;28;20857;-65
2023/07/05 03:49:17;;;;;;;11.27;4.88;;;15.20;99.90;;;;;;5027880;28;20717;-65
2023/07/05 03:51:43;;;;;;;12.00;4.55;;;15.20;99.90;;;;;;5044624;28;20200;-65
2023/07/05 03:54:10;;;;;;;11.38;4.78;;;15.20;99.90;;;;;;5050830;28;20223;-65
2023/07/05 03:56:38;;;;;;;6.68;4.32;;;15.10;99.90;;;;;;5047165;28;20436;-65
2023/07/05 03:59:04;;;;;;;9.27;4.47;;;15.20;99.90;;;;;;5053213;28;20219;-65
2023/07/05 04:01:32;;;;;;;6.43;4.57;;;15.10;99.90;;;;;;5056165;28;20933;-65
2023/07/05 04:04:01;;;;;;;7.03;4.40;;;15.20;99.90;;;;;;5061632;28;20469;-66
2023/07/05 04:06:30;;;;;;;6.20;4.22;;;15.20;99.90;;;;;;5038866;28;20216;-65
2023/07/05 04:08:57;;;;;;;7.30;4.57;;;15.20;99.90;;;;;;5050502;28;20603;-65
2023/07/05 04:11:24;;;;;;;6.78;4.57;;;15.20;99.90;;;;;;5059605;28;20227;-65
2023/07/05 04:13:52;;;;;;;8.77;5.70;;;15.10;99.90;;;;;;5044314;28;20421;-65
2023/07/05 04:16:21;;;;;;;7.53;4.45;;;15.10;99.90;;;;;;5063677;28;20204;-66
2023/07/05 04:18:50;;;;;;;9.05;4.78;;;15.10;99.90;;;;;;5048420;28;20231;-65
2023/07/05 04:21:19;;;;;;;9.13;4.72;;;15.20;99.90;;;;;;5027308;28;20404;-65
2023/07/05 04:23:46;;;;;;;9.23;4.85;;;15.10;99.90;;;;;;5048059;28;20225;-65
2023/07/05 04:26:14;;;;;;;8.13;4.90;;;15.10;99.90;;;;;;5058247;28;20227;-65
2023/07/05 04:28:43;;;;;;;12.02;4.75;;;15.20;99.90;;;;;;5051742;28;20224;-66
2023/07/05 04:31:15;;;;;;;10.85;5.10;;;15.10;99.90;;;;;;5044918;28;20297;-65
2023/07/05 04:33:42;;;;;;;7.97;5.00;;;15.10;99.90;;;;;;5047972;28;20200;-68
2023/07/05 04:36:09;;;;;;;8.30;4.80;;;15.20;99.90;;;;;;5027062;28;20699;-66
2023/07/05 04:38:37;;;;;;;6.07;4.57;;;15.20;99.90;;;;;;5053205;28;20224;-66
2023/07/05 04:41:04;;;;;;;7.43;4.88;;;15.20;99.90;;;;;;5055773;28;20300;-65
2023/07/05 04:43:30;;;;;;;10.52;5.05;;;15.20;99.90;;;;;;5046559;28;20561;-65
2023/07/05 04:45:59;;;;;;;7.07;5.03;;;15.20;99.90;;;;;;5043416;28;20517;-66
2023/07/05 04:48:28;;;;;;;7.45;4.32;;;15.20;99.90;;;;;;5046946;28;20228;-65
2023/07/05 04:50:55;;;;;;;10.48;5.03;;;15.30;99.90;;;;;;5035514;28;20207;-66
2023/07/05 04:53:23;;;;;;;7.30;4.40;;;15.30;99.90;;;;;;5048055;28;20683;-66
2023/07/05 04:55:53;;;;;;;6.57;4.78;;;15.20;99.90;;;;;;5054125;28;20204;-66
2023/07/05 04:58:20;;;;;;;8.27;5.00;;;15.20;99.90;;;;;;5038080;28;20729;-66
2023/07/05 05:00:49;;;;;;;11.82;5.38;;;15.20;99.90;;;;;;5044414;28;20716;-66
2023/07/05 05:03:17;;;;;;;14.50;5.68;;;15.20;99.90;;;;;;5037714;28;20208;-67
2023/07/05 05:05:44;;;;;;;10.65;5.18;;;15.20;99.90;;;;;;5052061;28;20220;-66
2023/07/05 05:08:11;;;;;;;8.38;5.15;;;;;;;;;;5031637;28;20240;-66
2023/07/05 05:10:39;;;;;;;9.35;5.35;;;15.20;99.90;;;;;;5054712;28;20684;-66
2023/07/05 05:13:08;;;;;;;13.65;5.28;;;15.20;99.90;;;;;;5060225;28;20649;-66
2023/07/05 05:15:37;;;;;;;10.05;5.38;;;15.20;99.90;;;;;;5051195;28;20209;-66
2023/07/05 05:18:04;;;;;;;11.02;5.40;;;15.20;99.90;;;;;;5044416;28;20338;-66
2023/07/05 05:20:31;;;;;;;8.93;5.30;;;15.30;99.90;;;;;;5048516;28;20469;-66
2023/07/05 05:22:58;;;;;;;8.38;5.35;;;;;;;;;;5029499;28;20233;-67
2023/07/05 05:25:25;;;;;;;9.93;5.65;;;15.30;99.90;;;;;;5047521;28;20523;-66
2023/07/05 05:27:52;;;;;;;11.50;5.22;;;15.40;99.90;;;;;;5057831;28;20200;-67
2023/07/05 05:30:20;;;;;;;8.02;5.55;;;15.30;99.90;;;;;;5052289;28;20196;-66
2023/07/05 05:32:48;;;;;;;16.02;6.43;;;15.40;99.90;;;;;;5044808;28;20228;-67
2023/07/05 05:35:15;;;;;;;12.25;5.32;;;15.70;99.90;;;;;;5041232;28;20212;-67
2023/07/05 05:37:42;;;;;;;9.82;6.47;;;15.80;99.90;;;;;;5060897;28;20227;-67
2023/07/05 05:40:10;;;;;;;11.95;6.35;;;15.70;99.90;;;;;;5032293;28;20220;-67
2023/07/05 05:42:38;;;;;;;10.73;5.97;;;15.70;99.90;;;;;;5052709;28;20227;-67
2023/07/05 05:45:06;;;;;;;8.38;5.13;;;15.80;99.90;;;;;;5047317;28;20219;-67
2023/07/05 05:47:34;;;;;;;9.73;5.82;;;15.80;99.90;;;;;;5042405;28;20340;-67
2023/07/05 05:50:01;;;;;;;8.88;5.22;;;15.70;99.90;;;;;;5051207;28;20732;-67
2023/07/05 05:52:28;;;;;;;11.50;5.72;;;15.70;99.90;;;;;;5045887;28;20193;-67
2023/07/05 05:54:54;;;;;;;10.55;5.53;;;15.70;99.90;;;;;;5036340;28;20421;-66
2023/07/05 05:57:21;;;;;;;8.90;5.57;;;15.70;99.90;;;;;;5054242;28;20217;-67
2023/07/05 05:59:48;;;;;;;8.25;4.75;;;15.70;99.90;;;;;;5055092;28;20235;-67
2023/07/05 06:02:16;;;;;;;6.63;5.28;;;15.70;99.90;;;;;;5058159;28;20197;-67
2023/07/05 06:04:44;;;;;;;8.77;5.45;;;15.70;99.90;;;;;;5045663;28;20198;-67
2023/07/05 06:07:11;;;;;;;7.03;4.80;;;15.70;99.90;;;;;;5047325;28;20204;-67
2023/07/05 06:09:38;;;;;;;7.35;5.15;;;15.70;99.90;;;;;;5031706;28;20204;-67
2023/07/05 06:12:06;;;;;;;7.05;4.95;;;15.70;99.90;;;;;;5059400;28;20248;-67
2023/07/05 06:14:33;;;;;;;7.50;5.22;;;15.70;99.90;;;;;;5053662;28;20696;-67
2023/07/05 06:17:00;;;;;;;6.32;4.88;;;15.70;99.90;;;;;;5055800;28;21319;-67
2023/07/05 06:19:26;;;;;;;6.38;4.97;;;15.70;99.90;;;;;;5051472;28;20215;-67
2023/07/05 06:21:54;;;;;;;5.10;4.55;;;15.80;99.90;;;;;;5047157;28;20393;-67
2023/07/05 06:24:21;;;;;;;8.23;4.45;;;15.80;99.90;;;;;;5053801;28;20228;-67
2023/07/05 06:26:48;;;;;;;6.28;4.75;;;15.80;99.90;;;;;;5034524;28;20309;-67
2023/07/05 06:29:15;;;;;;;10.85;5.55;;;15.90;99.90;;;;;;5058601;28;20189;-67
2023/07/05 06:31:42;;;;;;;8.32;5.07;;;15.90;99.90;;;;;;5057762;28;20402;-67
2023/07/05 06:34:08;;;;;;;9.02;5.68;;;15.80;99.90;;;;;;5052780;28;20674;-67
2023/07/05 06:36:35;;;;;;;7.38;5.43;;;15.90;99.90;;;;;;5049391;28;20600;-67
2023/07/05 06:39:04;;;;;;;8.10;5.28;;;15.90;99.90;;;;;;5051317;28;20205;-67
2023/07/05 06:41:31;;;;;;;6.95;4.90;;;16.00;99.90;;;;;;5030923;28;20204;-67
2023/07/05 06:43:57;;;;;;;7.05;4.53;;;16.10;99.90;;;;;;5058059;28;20201;-67
2023/07/05 06:46:24;;;;;;;6.60;4.47;;;16.10;99.90;;;;;;5060360;28;20205;-67
2023/07/05 06:48:51;;;;;;;6.82;4.63;;;16.10;99.90;;;;;;5051296;28;20200;-67
2023/07/05 06:51:18;;;;;;;8.52;4.35;;;15.90;99.90;;;;;;5061276;28;20558;-67
2023/07/05 06:53:45;;;;;;;7.22;4.57;;;16.40;99.90;;;;;;5041933;28;20200;-67
2023/07/05 06:56:14;;;;;;;8.23;4.40;;;16.20;99.90;;;;;;5032192;28;20700;-67
2023/07/05 06:58:40;;;;;;;5.22;4.00;;;16.20;99.90;;;;;;5059843;28;20196;-67
2023/07/05 07:01:07;;;;;;;6.93;3.97;;;16.30;99.90;;;;;;5065199;28;20234;-67
2023/07/05 07:03:34;;;;;;;6.38;3.65;;;16.20;99.90;;;;;;5060586;28;20622;-67
2023/07/05 07:06:01;;;;;;;5.35;4.00;;;16.20;99.90;;;;;;5053878;28;20758;-67
2023/07/05 07:08:31;;;;;;;3.38;2.60;;;16.20;99.90;;;;;;5065656;28;20193;-67
2023/07/05 07:11:00;;;;;;;5.28;2.10;;;16.20;99.90;;;;;;5033185;28;20854;-67
2023/07/05 07:13:28;;;;;;;4.03;2.45;;;16.10;99.90;;;;;;5048295;28;20272;-67
2023/07/05 07:16:03;;;;;;;3.60;2.00;;;16.10;99.90;;;;;;5065538;28;20204;-67
2023/07/05 07:18:31;;;;;;;3.20;2.05;;;16.10;99.90;;;;;;5057062;28;20195;-67
2023/07/05 07:20:59;;;;;;;2.65;2.20;;;16.00;99.90;;;;;;5049316;28;20519;-67
2023/07/05 07:23:26;;;;;;;4.60;1.77;;;16.10;99.90;;;;;;5061364;28;20244;-67
2023/07/05 07:26:00;;;;;;;7.47;1.90;;;16.10;99.90;;;;;;5053912;28;20440;-67
2023/07/05 07:28:29;;;;;;;2.65;2.00;;;16.20;99.90;;;;;;5040763;28;20538;-67
2023/07/05 07:30:56;;;;;;;6.38;2.38;;;16.20;99.90;;;;;;5061945;28;20341;-67
2023/07/05 07:33:23;;;;;;;4.28;2.33;;;16.30;99.90;;;;;;5059313;28;20680;-67
2023/07/05 07:35:50;;;;;;;4.68;2.33;;;16.40;99.90;;;;;;5044409;28;20197;-67
2023/07/05 07:38:18;;;;;;;5.15;1.98;;;16.40;99.90;;;;;;5056518;28;20736;-67
2023/07/05 07:40:45;;;;;;;3.42;2.20;;;16.40;99.90;;;;;;5062315;28;20323;-67
2023/07/05 07:43:11;;;;;;;4.68;2.25;;;16.50;99.90;;;;;;5030986;28;20681;-67
2023/07/05 07:45:40;;;;;;;4.07;2.38;;;16.50;99.90;;;;;;5056736;28;20231;-67
2023/07/05 07:48:07;;;;;;;6.07;2.42;;;16.50;99.90;;;;;;5061351;28;20196;-67
2023/07/05 07:50:34;;;;;;;2.97;2.05;;;16.60;99.90;;;;;;5049141;28;20225;-67
2023/07/05 07:53:01;;;;;;;5.15;2.55;;;16.70;99.90;;;;;;5063977;28;20196;-67
2023/07/05 07:55:30;;;;;;;2.83;2.22;;;16.70;99.90;;;;;;5056647;28;20216;-67
2023/07/05 07:57:57;;;;;;;2.88;2.25;;;16.80;99.90;;;;;;5043768;28;20224;-67
2023/07/05 08:00:24;;;;;;;6.28;2.60;;;16.80;99.90;;;;;;5036931;28;20231;-67
2023/07/05 08:02:52;;;;;;;4.40;2.35;;;16.80;99.90;;;;;;5059828;28;20227;-67
2023/07/05 08:05:22;;;;;;;3.60;2.25;;;16.90;99.90;;;;;;5053438;28;20833;-67
2023/07/05 08:07:49;;;;;;;3.35;2.05;;;17.00;99.90;;;;;;5059839;28;20696;-67
2023/07/05 08:10:16;;;;;;;8.00;2.40;;;17.00;99.90;;;;;;5055389;28;20220;-67
2023/07/05 08:12:43;;;;;;;5.72;2.25;;;17.00;99.90;;;;;;5050195;28;20197;-67
2023/07/05 08:15:10;;;;;;;2.50;1.73;;;16.90;99.90;;;;;;5041755;28;20208;-67
2023/07/05 08:17:37;;;;;;;5.00;2.42;;;16.90;99.90;;;;;;5058855;28;20193;-67
2023/07/05 08:20:07;;;;;;;4.88;2.35;;;16.90;99.90;;;;;;5063897;28;20571;-67
2023/07/05 08:22:33;;;;;;;3.20;2.10;;;16.90;99.90;;;;;;5046056;28;20201;-67
2023/07/05 08:25:00;;;;;;;2.78;2.17;;;17.00;99.90;;;;;;5064849;28;20199;-67
2023/07/05 08:27:27;;;;;;;4.00;2.22;;;17.00;99.90;;;;;;5060287;28;20188;-67
2023/07/05 08:29:54;;;;;;;4.72;2.30;;;17.10;99.90;;;;;;5034067;28;20227;-67
2023/07/05 08:32:21;;;;;;;4.00;2.42;;;17.20;99.90;;;;;;5066483;28;20200;-67
2023/07/05 08:34:49;;;;;;;12.85;2.47;;;17.00;99.90;;;;;;5063390;28;20311;-67
2023/07/05 08:37:17;;;;;;;3.45;2.05;;;17.00;99.90;;;;;;5053181;28;20806;-67
2023/07/05 08:39:45;;;;;;;5.30;2.30;;;16.90;99.90;;;;;;5057273;28;20789;-67
2023/07/05 08:42:41;;;;;;;8.50;2.45;;;16.90;99.90;;;;;;5062282;28;20201;-66
2023/07/05 08:45:15;;;;;;;3.28;2.10;;;17.10;99.90;;;;;;5045250;28;20197;-67
2023/07/05 08:47:47;;;;;;;4.07;2.28;;;17.20;99.90;;;;;;5013826;28;20243;-67
2023/07/05 08:50:25;;;;;;;7.97;2.40;;;17.20;99.90;;;;;;5058665;28;20196;-66
2023/07/05 08:52:58;;;;;;;4.18;2.17;;;17.20;99.90;;;;;;5036193;28;20713;-66
2023/07/05 08:55:29;;;;;;;4.70;2.00;;;17.20;99.90;;;;;;5064530;28;20545;-67
2023/07/05 08:57:57;;;;;;;3.70;2.40;;;17.30;99.90;;;;;;5045708;28;20196;-66
2023/07/05 09:00:28;;;;;;;2.78;2.25;;;17.30;99.90;;;;;;5060500;28;20224;-66
2023/07/05 09:02:54;;;;;;;6.38;2.05;;;17.40;99.90;;;;;;5027897;28;20216;-67
2023/07/05 09:05:30;;;;;;;4.47;2.42;;;17.40;99.90;;;;;;5049816;28;20870;-66
2023/07/05 09:08:10;;;;;;;3.60;2.20;;;17.30;99.90;;;;;;5040672;28;20204;-67
2023/07/05 09:10:44;;;;;;;4.03;2.28;;;17.40;99.90;;;;;;5063215;28;20227;-66
2023/07/05 09:13:17;;;;;;;8.10;2.30;;;17.40;99.90;;;;;;5055256;28;20592;-66
2023/07/05 09:15:49;;;;;;;5.18;2.30;;;17.50;99.90;;;;;;5062261;28;20205;-66
2023/07/05 09:18:20;;;;;;;5.90;2.17;;;17.50;99.90;;;;;;5031398;28;20586;-66
2023/07/05 09:21:03;;;;;;;2.70;1.98;;;17.50;99.90;;;;;;5066578;28;20716;-66
2023/07/05 09:23:36;;;;;;;4.07;1.88;;;17.50;99.90;;;;;;5038374;28;20235;-66
2023/07/05 09:26:11;;;;;;;4.65;1.88;;;17.70;99.90;;;;;;5040747;28;20320;-67
2023/07/05 09:28:46;;;;;;;3.28;1.58;;;17.30;99.90;;;;;;5050648;28;20224;-66
2023/07/05 09:31:15;;;;;;;6.93;1.70;;;17.30;99.90;;;;;;5043112;28;20982;-66
2023/07/05 09:33:47;;;;;;;3.15;1.58;;;17.20;99.90;;;;;;5029760;28;20807;-66
2023/07/05 09:36:22;;;;;;;8.55;1.67;;;17.10;99.90;;;;;;5046223;28;20220;-66
2023/07/05 09:38:55;;;;;;;3.40;1.98;;;17.00;99.90;;;;;;5044798;28;20686;-66
2023/07/05 09:41:35;;;;;;;3.05;1.58;;;17.00;99.90;;;;;;5050373;28;20306;-66
2023/07/05 09:44:02;;;;;;;4.10;1.80;;;17.00;99.90;;;;;;5058598;28;20819;-66
2023/07/05 09:46:33;;;;;;;11.02;2.03;;;16.90;99.90;;;;;;5050228;28;20201;-66
2023/07/05 09:49:00;;;;;;;3.28;1.63;;;16.90;99.90;;;;;;5038179;28;20236;-66
2023/07/05 09:51:27;;;;;;;14.50;2.17;;;16.80;99.90;;;;;;5050063;28;20415;-66
2023/07/05 09:53:59;;;;;;;3.88;1.73;;;16.80;99.90;;;;;;5042342;28;20224;-66
2023/07/05 09:56:28;;;;;;;2.17;1.52;;;16.80;99.90;;;;;;5052904;28;20484;-66
2023/07/05 09:59:08;;;;;;;5.25;1.85;;;16.80;99.90;;;;;;5053238;28;20197;-66
2023/07/05 10:01:38;;;;;;;8.82;1.80;;;16.80;99.90;;;;;;5047106;28;20810;-66
2023/07/05 10:04:06;;;;;;;1.60;1.40;;;16.70;99.90;;;;;;5034366;28;20209;-66
2023/07/05 10:06:34;;;;;;;3.33;1.50;;;16.90;99.90;;;;;;5054859;28;20756;-66
2023/07/05 10:09:13;;;;;;;3.58;1.65;;;16.80;99.90;;;;;;5043720;28;20907;-66
2023/07/05 10:11:45;;;;;;;2.78;1.30;;;17.00;99.90;;;;;;5046897;28;20204;-66
2023/07/05 10:14:15;;;;;;;2.28;1.60;;;17.00;99.90;;;;;;5048190;28;20708;-66
2023/07/05 10:16:48;;;;;;;1.70;1.60;;;17.00;99.90;;;;;;5052001;28;21100;-65
2023/07/05 10:19:32;;;;;;;2.10;1.70;;;16.90;99.90;;;;;;5028183;28;20236;-66
2023/07/05 10:22:04;;;;;;;4.22;1.42;;;16.80;99.90;;;;;;5057841;28;20730;-66
2023/07/05 10:24:33;;;;;;;2.80;1.55;;;16.70;99.90;;;;;;5044208;28;20320;-66
2023/07/05 10:27:09;;;;;;;2.50;1.70;;;16.70;99.90;;;;;;5058486;28;20297;-66
2023/07/05 10:29:37;;;;;;;2.40;1.65;;;16.80;99.90;;;;;;5056333;28;20533;-66
2023/07/05 10:32:05;;;;;;;3.28;1.45;;;16.80;99.90;;;;;;5045586;28;21081;-66
2023/07/05 10:34:32;;;;;;;3.15;1.52;;;16.90;99.90;;;;;;5036608;28;20408;-66
2023/07/05 10:37:04;;;;;;;4.70;2.00;;;16.90;99.90;;;;;;5062666;28;20502;-66
2023/07/05 10:39:32;;;;;;;3.97;1.52;;;16.90;99.90;;;;;;5041959;28;20212;-66
2023/07/05 10:42:00;;;;;;;3.35;1.60;;;16.90;99.90;;;;;;5056442;28;20235;-65
2023/07/05 10:44:31;;;;;;;4.18;1.77;;;16.90;99.90;;;;;;5042871;28;20243;-66
2023/07/05 10:46:58;;;;;;;5.45;1.52;;;16.90;99.90;;;;;;5048490;28;20762;-66
2023/07/05 10:49:27;;;;;;;3.85;1.60;;;17.10;99.90;;;;;;5033195;28;20204;-65
2023/07/05 10:51:58;;;;;;;2.58;1.25;;;17.10;99.90;;;;;;5050553;28;20216;-65
2023/07/05 10:54:32;;;;;;;1.52;1.20;;;17.10;99.90;;;;;;5043244;28;20212;-66
2023/07/05 10:57:04;;;;;;;3.80;1.40;;;17.10;99.90;;;;;;5057730;28;20196;-66
2023/07/05 10:59:37;;;;;;;2.55;1.38;;;17.20;99.90;;;;;;5049455;28;20927;-66
2023/07/05 11:02:18;;;;;;;4.57;1.65;;;17.10;99.90;;;;;;5053019;28;20783;-65
2023/07/05 11:04:48;;;;;;;5.82;1.48;;;17.00;99.90;;;;;;5027344;28;20212;-65
2023/07/05 11:07:15;;;;;;;4.38;1.30;;;17.00;99.90;;;;;;5055602;28;20193;-65
2023/07/05 11:09:42;;;;;;;2.67;1.55;;;17.00;99.90;;;;;;5043034;28;20205;-65
2023/07/05 11:12:18;;;;;;;4.65;1.75;;;17.10;99.90;;;;;;5057885;28;20231;-65
2023/07/05 11:14:46;;;;;;;4.22;1.40;;;17.00;99.90;;;;;;5044619;28;20224;-65
2023/07/05 11:17:23;;;;;;;5.15;1.90;;;17.00;99.90;;;;;;5053878;28;20189;-65
2023/07/05 11:19:49;;;;;;;2.10;1.48;;;17.00;99.90;;;;;;5018516;28;20224;-65
2023/07/05 11:22:39;;;;;;;1.58;1.27;;;17.40;99.90;;;;;;5051756;28;20227;-66
2023/07/05 11:25:10;;;;;;;3.50;1.48;;;17.10;99.90;;;;;;5053504;28;20201;-65
2023/07/05 11:27:56;;;;;;;6.10;1.27;;;17.10;99.90;;;;;;5044729;28;20228;-65
2023/07/05 11:30:45;;;;;;;1.75;1.30;;;17.10;99.90;;;;;;5047253;28;20204;-65
2023/07/05 11:33:15;;;;;;;2.50;1.45;;;17.10;99.90;;;;;;5045301;28;20228;-65
2023/07/05 11:35:45;;;;;;;2.50;1.30;;;17.10;99.90;;;;;;5034391;28;20219;-65
2023/07/05 11:38:54;;;;;;;1.20;1.10;;;17.10;99.90;;;;;;5040126;28;20196;-65
2023/07/05 11:41:30;;;;;;;2.13;0.90;;;17.00;99.90;;;;;;5044814;28;20691;-65
2023/07/05 11:44:01;;;;;;;3.22;1.35;;;16.90;99.90;;;;;;5055403;28;20681;-65
2023/07/05 11:46:42;;;;;;;3.35;1.38;;;16.80;99.90;;;;;;5050423;28;20208;-65
2023/07/05 11:49:39;;;;;;;5.22;1.00;;;16.60;99.90;;;;;;5030222;28;20211;-66
2023/07/05 11:52:19;;;;;;;1.88;1.00;;;16.60;99.90;;;;;;5051499;28;20191;-65
2023/07/05 11:54:59;;;;;;;2.50;1.30;;;16.60;99.90;;;;;;5060681;28;20216;-64
2023/07/05 11:57:29;;;;;;;1.58;1.00;;;16.50;99.90;;;;;;5046638;28;20203;-65
2023/07/05 12:00:09;;;;;;;4.68;1.27;;;16.60;99.90;;;;;;5060522;28;20612;-64
2023/07/05 12:02:46;;;;;;;2.78;1.10;;;16.50;99.90;;;;;;5042376;28;20362;-64
2023/07/05 12:05:15;;;;;;;3.92;1.17;;;16.40;99.90;;;;;;5031263;28;20550;-64
2023/07/05 12:07:44;;;;;;;4.32;0.70;;;16.30;99.90;;;;;;5056783;28;20448;-65
2023/07/05 12:10:19;;;;;;;1.38;0.73;;;16.20;99.90;;;;;;5060668;28;20196;-64
2023/07/05 12:12:46;;;;;;;2.42;0.98;;;16.20;99.90;;;;;;5049350;28;20368;-65
2023/07/05 12:15:16;;;;;;;4.78;1.20;;;16.20;99.90;;;;;;5052689;28;20196;-64
2023/07/05 12:17:43;;;;;;;4.32;0.90;;;16.20;99.90;;;;;;5053826;28;20284;-64
2023/07/05 12:20:29;;;;;;;2.60;0.95;;;16.20;99.90;;;;;;5027627;28;20548;-64
2023/07/05 12:22:57;;;;;;;2.78;1.20;;;15.90;99.90;;;;;;5067113;28;20569;-64
2023/07/05 12:25:25;;;;;;;6.43;1.13;;;15.50;99.90;;;;;;5057619;28;20195;-64
2023/07/05 12:27:53;;;;;;;1.48;0.85;;;15.50;99.90;;;;;;5048923;28;20413;-64
2023/07/05 12:30:23;;;;;;;1.40;0.88;;;15.30;99.90;;;;;;5051839;28;20196;-64
2023/07/05 12:32:51;;;;;;;2.20;1.23;;;15.30;99.90;;;;;;5053493;28;20863;-64
2023/07/05 12:35:21;;;;;;;3.05;0.93;;;15.30;99.90;;;;;;5044253;28;20307;-65
2023/07/05 12:37:49;;;;;;;7.28;1.30;;;15.30;99.90;;;;;;5046570;28;20694;-65
2023/07/05 12:40:40;;;;;;;4.35;1.05;;;15.30;99.90;;;;;;5059510;28;20199;-64
2023/07/05 12:43:08;;;;;;;3.03;1.13;;;15.50;99.90;;;;;;5054754;28;20513;-64
2023/07/05 12:45:38;;;;;;;3.08;1.20;;;15.40;99.90;;;;;;5053145;28;20672;-64
2023/07/05 12:48:15;;;;;;;3.70;1.30;;;15.40;99.90;;;;;;5061701;28;20205;-64
2023/07/05 12:50:43;;;;;;;8.68;1.50;;;15.40;99.90;;;;;;5034949;28;20376;-64
2023/07/05 12:53:16;;;;;;;5.75;1.70;;;15.40;99.90;;;;;;5040492;28;20219;-64
2023/07/05 12:55:53;;;;;;;2.55;1.30;;;15.40;99.90;;;;;;5061447;28;20734;-64
2023/07/05 12:58:23;;;;;;;4.38;1.23;;;15.50;99.90;;;;;;5049661;28;20203;-64
2023/07/05 13:00:53;;;;;;;2.85;1.38;;;15.50;99.90;;;;;;5040140;28;22761;-65